sensor_id;sensor_type;location;lat;lon;timestamp;P1;durP1;ratioP1;P2;durP2;ratioP2
17965;SDS011;9108;53.204;10.424;2024-01-07T00:00:05;8.07;;;3.70;;
17965;SDS011;9108;53.204;10.424;2024-01-07T00:02:33;9.63;;;3.60;;
17965;SDS011;9108;53.204;10.424;2024-01-07T00:05:01;7.93;;;3.42;;
17965;SDS011;9108;53.204;10.424;2024-01-07T00:07:30;6.65;;;3.20;;
17965;SDS011;9108;53.204;10.424;2024-01-07T00:09:57;8.50;;;3.22;;
17965;SDS011;9108;53.204;10.424;2024-01-07T00:12:25;7.68;;;3.20;;
17965;SDS011;9108;53.204;10.424;2024-01-07T00:14:52;7.70;;;3.30;;
17965;SDS011;9108;53.204;10.424;2024-01-07T00:17:19;7.15;;;3.20;;
17965;SDS011;9108;53.204;10.424;2024-01-07T00:19:47;8.15;;;3.28;;
17965;SDS011;9108;53.204;10.424;2024-01-07T00:22:14;7.13;;;3.38;;
17965;SDS011;9108;53.204;10.424;2024-01-07T00:24:44;6.93;;;3.40;;
17965;SDS011;9108;53.204;10.424;2024-01-07T00:27:12;6.45;;;3.03;;
17965;SDS011;9108;53.204;10.424;2024-01-07T00:29:39;7.70;;;3.10;;
17965;SDS011;9108;53.204;10.424;2024-01-07T00:32:06;8.15;;;3.08;;
17965;SDS011;9108;53.204;10.424;2024-01-07T00:34:33;8.68;;;3.28;;
17965;SDS011;9108;53.204;10.424;2024-01-07T00:37:01;8.10;;;3.33;;
17965;SDS011;9108;53.204;10.424;2024-01-07T00:39:28;7.80;;;3.00;;
17965;SDS011;9108;53.204;10.424;2024-01-07T00:41:57;7.00;;;2.80;;
17965;SDS011;9108;53.204;10.424;2024-01-07T00:44:24;7.43;;;2.90;;
17965;SDS011;9108;53.204;10.424;2024-01-07T00:46:51;6.65;;;2.78;;
17965;SDS011;9108;53.204;10.424;2024-01-07T00:49:19;8.05;;;2.80;;
17965;SDS011;9108;53.204;10.424;2024-01-07T00:51:46;6.28;;;2.60;;
17965;SDS011;9108;53.204;10.424;2024-01-07T00:54:13;6.20;;;2.70;;
17965;SDS011;9108;53.204;10.424;2024-01-07T00:56:40;7.28;;;2.90;;
17965;SDS011;9108;53.204;10.424;2024-01-07T00:59:09;6.65;;;2.63;;
17965;SDS011;9108;53.204;10.424;2024-01-07T01:01:37;7.05;;;2.85;;
17965;SDS011;9108;53.204;10.424;2024-01-07T01:04:04;7.60;;;2.83;;
17965;SDS011;9108;53.204;10.424;2024-01-07T01:06:31;6.55;;;2.80;;
17965;SDS011;9108;53.204;10.424;2024-01-07T01:08:58;6.38;;;2.80;;
17965;SDS011;9108;53.204;10.424;2024-01-07T01:11:26;6.03;;;2.72;;
17965;SDS011;9108;53.204;10.424;2024-01-07T01:13:53;6.55;;;2.70;;
17965;SDS011;9108;53.204;10.424;2024-01-07T01:16:22;6.63;;;2.90;;
17965;SDS011;9108;53.204;10.424;2024-01-07T01:18:49;6.75;;;2.80;;
17965;SDS011;9108;53.204;10.424;2024-01-07T01:21:16;7.20;;;2.63;;
17965;SDS011;9108;53.204;10.424;2024-01-07T01:23:44;7.22;;;2.95;;
17965;SDS011;9108;53.204;10.424;2024-01-07T01:26:11;5.45;;;2.90;;
17965;SDS011;9108;53.204;10.424;2024-01-07T01:28:38;5.95;;;2.83;;
17965;SDS011;9108;53.204;10.424;2024-01-07T01:31:06;6.25;;;3.00;;
17965;SDS011;9108;53.204;10.424;2024-01-07T01:33:34;7.03;;;2.67;;
17965;SDS011;9108;53.204;10.424;2024-01-07T01:36:04;6.22;;;2.90;;
17965;SDS011;9108;53.204;10.424;2024-01-07T01:38:32;7.75;;;2.97;;
17965;SDS011;9108;53.204;10.424;2024-01-07T01:40:59;7.03;;;2.88;;
17965;SDS011;9108;53.204;10.424;2024-01-07T01:43:27;6.63;;;2.90;;
17965;SDS011;9108;53.204;10.424;2024-01-07T01:45:54;7.05;;;3.03;;
17965;SDS011;9108;53.204;10.424;2024-01-07T01:48:23;6.00;;;2.90;;
17965;SDS011;9108;53.204;10.424;2024-01-07T01:50:53;9.23;;;3.00;;
17965;SDS011;9108;53.204;10.424;2024-01-07T01:55:56;5.80;;;2.80;;
17965;SDS011;9108;53.204;10.424;2024-01-07T02:04:09;7.90;;;3.15;;
17965;SDS011;9108;53.204;10.424;2024-01-07T02:06:39;7.63;;;3.03;;
17965;SDS011;9108;53.204;10.424;2024-01-07T02:09:14;6.47;;;2.90;;
17965;SDS011;9108;53.204;10.424;2024-01-07T02:12:02;7.93;;;3.00;;
17965;SDS011;9108;53.204;10.424;2024-01-07T02:14:29;5.95;;;2.90;;
17965;SDS011;9108;53.204;10.424;2024-01-07T02:17:00;8.23;;;3.10;;
17965;SDS011;9108;53.204;10.424;2024-01-07T02:19:35;6.97;;;2.88;;
17965;SDS011;9108;53.204;10.424;2024-01-07T02:22:08;8.40;;;2.92;;
17965;SDS011;9108;53.204;10.424;2024-01-07T02:24:46;6.28;;;2.88;;
17965;SDS011;9108;53.204;10.424;2024-01-07T02:30:13;5.70;;;2.75;;
17965;SDS011;9108;53.204;10.424;2024-01-07T02:33:00;9.00;;;3.08;;
17965;SDS011;9108;53.204;10.424;2024-01-07T02:35:54;7.57;;;3.13;;
17965;SDS011;9108;53.204;10.424;2024-01-07T02:38:53;7.72;;;2.97;;
17965;SDS011;9108;53.204;10.424;2024-01-07T02:44:32;7.53;;;3.15;;
17965;SDS011;9108;53.204;10.424;2024-01-07T02:47:18;6.63;;;2.80;;
17965;SDS011;9108;53.204;10.424;2024-01-07T02:56:33;6.63;;;2.97;;
17965;SDS011;9108;53.204;10.424;2024-01-07T02:56:45;6.88;;;3.10;;
17965;SDS011;9108;53.204;10.424;2024-01-07T03:02:17;8.27;;;3.13;;
17965;SDS011;9108;53.204;10.424;2024-01-07T03:04:58;7.50;;;3.00;;
17965;SDS011;9108;53.204;10.424;2024-01-07T03:07:42;7.57;;;3.08;;
17965;SDS011;9108;53.204;10.424;2024-01-07T03:10:13;7.05;;;2.92;;
17965;SDS011;9108;53.204;10.424;2024-01-07T03:12:46;7.68;;;2.90;;
17965;SDS011;9108;53.204;10.424;2024-01-07T03:15:15;6.95;;;2.80;;
17965;SDS011;9108;53.204;10.424;2024-01-07T03:17:45;7.43;;;2.88;;
17965;SDS011;9108;53.204;10.424;2024-01-07T03:20:23;5.47;;;2.60;;
17965;SDS011;9108;53.204;10.424;2024-01-07T03:25:34;7.95;;;2.60;;
17965;SDS011;9108;53.204;10.424;2024-01-07T03:28:10;8.93;;;2.88;;
17965;SDS011;9108;53.204;10.424;2024-01-07T03:30:43;6.45;;;2.60;;
17965;SDS011;9108;53.204;10.424;2024-01-07T03:33:15;5.00;;;2.40;;
17965;SDS011;9108;53.204;10.424;2024-01-07T03:35:52;6.18;;;2.88;;
17965;SDS011;9108;53.204;10.424;2024-01-07T03:38:19;7.47;;;2.55;;
17965;SDS011;9108;53.204;10.424;2024-01-07T03:40:49;6.20;;;2.30;;
17965;SDS011;9108;53.204;10.424;2024-01-07T03:43:22;6.18;;;2.30;;
17965;SDS011;9108;53.204;10.424;2024-01-07T03:45:53;6.82;;;2.40;;
17965;SDS011;9108;53.204;10.424;2024-01-07T03:48:22;6.50;;;2.45;;
17965;SDS011;9108;53.204;10.424;2024-01-07T03:50:49;7.00;;;2.30;;
17965;SDS011;9108;53.204;10.424;2024-01-07T03:53:16;5.20;;;2.40;;
17965;SDS011;9108;53.204;10.424;2024-01-07T03:55:43;6.20;;;2.50;;
17965;SDS011;9108;53.204;10.424;2024-01-07T03:58:10;4.80;;;2.40;;
17965;SDS011;9108;53.204;10.424;2024-01-07T04:00:37;6.75;;;2.30;;
17965;SDS011;9108;53.204;10.424;2024-01-07T04:03:05;4.15;;;2.25;;
17965;SDS011;9108;53.204;10.424;2024-01-07T04:05:33;5.78;;;2.45;;
17965;SDS011;9108;53.204;10.424;2024-01-07T04:08:00;5.10;;;2.22;;
17965;SDS011;9108;53.204;10.424;2024-01-07T04:10:27;4.72;;;2.33;;
17965;SDS011;9108;53.204;10.424;2024-01-07T04:12:54;6.15;;;2.20;;
17965;SDS011;9108;53.204;10.424;2024-01-07T04:15:22;6.63;;;2.17;;
17965;SDS011;9108;53.204;10.424;2024-01-07T04:17:49;4.53;;;2.30;;
17965;SDS011;9108;53.204;10.424;2024-01-07T04:20:16;5.53;;;2.30;;
17965;SDS011;9108;53.204;10.424;2024-01-07T04:22:45;6.80;;;2.20;;
17965;SDS011;9108;53.204;10.424;2024-01-07T04:25:12;6.18;;;2.40;;
17965;SDS011;9108;53.204;10.424;2024-01-07T04:27:39;6.68;;;2.28;;
17965;SDS011;9108;53.204;10.424;2024-01-07T04:30:06;6.13;;;2.20;;
17965;SDS011;9108;53.204;10.424;2024-01-07T04:32:34;5.25;;;2.00;;
17965;SDS011;9108;53.204;10.424;2024-01-07T04:35:01;5.60;;;2.10;;
17965;SDS011;9108;53.204;10.424;2024-01-07T04:37:29;6.22;;;1.98;;
17965;SDS011;9108;53.204;10.424;2024-01-07T04:39:57;4.93;;;2.08;;
17965;SDS011;9108;53.204;10.424;2024-01-07T04:42:24;5.22;;;2.03;;
17965;SDS011;9108;53.204;10.424;2024-01-07T04:44:51;5.10;;;2.20;;
17965;SDS011;9108;53.204;10.424;2024-01-07T04:47:28;6.40;;;2.00;;
17965;SDS011;9108;53.204;10.424;2024-01-07T04:49:55;5.20;;;2.28;;
17965;SDS011;9108;53.204;10.424;2024-01-07T04:52:23;6.38;;;2.17;;
17965;SDS011;9108;53.204;10.424;2024-01-07T04:54:50;8.32;;;2.17;;
17965;SDS011;9108;53.204;10.424;2024-01-07T04:57:19;6.00;;;1.98;;
17965;SDS011;9108;53.204;10.424;2024-01-07T04:59:46;6.93;;;2.03;;
17965;SDS011;9108;53.204;10.424;2024-01-07T05:02:13;6.80;;;2.28;;
17965;SDS011;9108;53.204;10.424;2024-01-07T05:04:41;5.35;;;2.05;;
17965;SDS011;9108;53.204;10.424;2024-01-07T05:07:08;5.47;;;2.10;;
17965;SDS011;9108;53.204;10.424;2024-01-07T05:09:35;4.45;;;1.90;;
17965;SDS011;9108;53.204;10.424;2024-01-07T05:12:03;8.07;;;2.40;;
17965;SDS011;9108;53.204;10.424;2024-01-07T05:14:31;6.35;;;2.15;;
17965;SDS011;9108;53.204;10.424;2024-01-07T05:16:58;5.80;;;2.00;;
17965;SDS011;9108;53.204;10.424;2024-01-07T05:19:25;4.83;;;2.10;;
17965;SDS011;9108;53.204;10.424;2024-01-07T05:21:53;7.07;;;2.20;;
17965;SDS011;9108;53.204;10.424;2024-01-07T05:24:20;5.60;;;2.13;;
17965;SDS011;9108;53.204;10.424;2024-01-07T05:26:47;4.75;;;2.20;;
17965;SDS011;9108;53.204;10.424;2024-01-07T05:29:14;4.70;;;2.15;;
17965;SDS011;9108;53.204;10.424;2024-01-07T05:31:42;5.43;;;2.00;;
17965;SDS011;9108;53.204;10.424;2024-01-07T05:34:10;5.93;;;1.80;;
17965;SDS011;9108;53.204;10.424;2024-01-07T05:36:37;5.20;;;1.95;;
17965;SDS011;9108;53.204;10.424;2024-01-07T05:39:04;4.88;;;2.00;;
17965;SDS011;9108;53.204;10.424;2024-01-07T05:41:32;5.23;;;1.93;;
17965;SDS011;9108;53.204;10.424;2024-01-07T05:43:59;5.38;;;1.90;;
17965;SDS011;9108;53.204;10.424;2024-01-07T05:46:26;5.33;;;2.13;;
17965;SDS011;9108;53.204;10.424;2024-01-07T05:48:54;5.22;;;1.83;;
17965;SDS011;9108;53.204;10.424;2024-01-07T05:51:22;4.50;;;1.90;;
17965;SDS011;9108;53.204;10.424;2024-01-07T05:53:49;4.50;;;1.80;;
17965;SDS011;9108;53.204;10.424;2024-01-07T05:56:16;4.70;;;1.90;;
17965;SDS011;9108;53.204;10.424;2024-01-07T05:58:43;4.85;;;1.85;;
17965;SDS011;9108;53.204;10.424;2024-01-07T06:01:10;4.15;;;1.88;;
17965;SDS011;9108;53.204;10.424;2024-01-07T06:03:37;5.40;;;1.98;;
17965;SDS011;9108;53.204;10.424;2024-01-07T06:06:06;4.28;;;1.80;;
17965;SDS011;9108;53.204;10.424;2024-01-07T06:08:33;5.28;;;2.10;;
17965;SDS011;9108;53.204;10.424;2024-01-07T06:11:00;6.30;;;1.90;;
17965;SDS011;9108;53.204;10.424;2024-01-07T06:13:27;6.15;;;2.00;;
17965;SDS011;9108;53.204;10.424;2024-01-07T06:15:54;6.25;;;1.90;;
17965;SDS011;9108;53.204;10.424;2024-01-07T06:18:21;10.10;;;2.17;;
17965;SDS011;9108;53.204;10.424;2024-01-07T06:20:48;5.75;;;1.88;;
17965;SDS011;9108;53.204;10.424;2024-01-07T06:23:17;5.88;;;2.10;;
17965;SDS011;9108;53.204;10.424;2024-01-07T06:25:44;7.73;;;2.20;;
17965;SDS011;9108;53.204;10.424;2024-01-07T06:28:11;6.63;;;2.10;;
17965;SDS011;9108;53.204;10.424;2024-01-07T06:30:38;6.82;;;2.10;;
17965;SDS011;9108;53.204;10.424;2024-01-07T06:33:06;5.18;;;2.20;;
17965;SDS011;9108;53.204;10.424;2024-01-07T06:35:33;6.28;;;2.30;;
17965;SDS011;9108;53.204;10.424;2024-01-07T06:38:00;6.45;;;2.10;;
17965;SDS011;9108;53.204;10.424;2024-01-07T06:40:29;5.28;;;2.17;;
17965;SDS011;9108;53.204;10.424;2024-01-07T06:42:56;4.95;;;2.22;;
17965;SDS011;9108;53.204;10.424;2024-01-07T06:45:23;5.93;;;2.08;;
17965;SDS011;9108;53.204;10.424;2024-01-07T06:47:50;4.37;;;2.07;;
17965;SDS011;9108;53.204;10.424;2024-01-07T06:50:18;7.40;;;2.40;;
17965;SDS011;9108;53.204;10.424;2024-01-07T06:52:46;7.07;;;2.22;;
17965;SDS011;9108;53.204;10.424;2024-01-07T06:55:13;6.47;;;2.30;;
17965;SDS011;9108;53.204;10.424;2024-01-07T06:57:41;5.72;;;2.40;;
17965;SDS011;9108;53.204;10.424;2024-01-07T07:00:09;7.13;;;2.60;;
17965;SDS011;9108;53.204;10.424;2024-01-07T07:02:36;5.40;;;2.38;;
17965;SDS011;9108;53.204;10.424;2024-01-07T07:05:03;5.78;;;2.13;;
17965;SDS011;9108;53.204;10.424;2024-01-07T07:07:30;5.47;;;2.33;;
17965;SDS011;9108;53.204;10.424;2024-01-07T07:09:58;5.25;;;2.25;;
17965;SDS011;9108;53.204;10.424;2024-01-07T07:12:26;6.10;;;2.20;;
17965;SDS011;9108;53.204;10.424;2024-01-07T07:14:57;5.50;;;2.47;;
17965;SDS011;9108;53.204;10.424;2024-01-07T07:17:24;6.40;;;2.07;;
17965;SDS011;9108;53.204;10.424;2024-01-07T07:19:51;6.70;;;2.10;;
17965;SDS011;9108;53.204;10.424;2024-01-07T07:22:18;6.78;;;2.30;;
17965;SDS011;9108;53.204;10.424;2024-01-07T07:24:45;4.90;;;2.28;;
17965;SDS011;9108;53.204;10.424;2024-01-07T07:27:12;6.85;;;2.40;;
17965;SDS011;9108;53.204;10.424;2024-01-07T07:29:39;5.85;;;2.63;;
17965;SDS011;9108;53.204;10.424;2024-01-07T07:32:08;6.75;;;2.30;;
17965;SDS011;9108;53.204;10.424;2024-01-07T07:34:35;5.97;;;2.22;;
17965;SDS011;9108;53.204;10.424;2024-01-07T07:37:02;4.95;;;2.13;;
17965;SDS011;9108;53.204;10.424;2024-01-07T07:39:30;5.47;;;2.30;;
17965;SDS011;9108;53.204;10.424;2024-01-07T07:41:57;4.60;;;2.07;;
17965;SDS011;9108;53.204;10.424;2024-01-07T07:44:24;5.18;;;2.10;;
17965;SDS011;9108;53.204;10.424;2024-01-07T07:46:51;4.63;;;2.00;;
17965;SDS011;9108;53.204;10.424;2024-01-07T07:49:20;5.07;;;1.95;;
17965;SDS011;9108;53.204;10.424;2024-01-07T07:51:47;6.45;;;2.10;;
17965;SDS011;9108;53.204;10.424;2024-01-07T07:54:14;8.23;;;2.10;;
17965;SDS011;9108;53.204;10.424;2024-01-07T07:56:42;6.57;;;2.03;;
17965;SDS011;9108;53.204;10.424;2024-01-07T07:59:09;6.45;;;1.90;;
17965;SDS011;9108;53.204;10.424;2024-01-07T08:01:36;5.18;;;2.00;;
17965;SDS011;9108;53.204;10.424;2024-01-07T08:04:04;9.23;;;2.70;;
17965;SDS011;9108;53.204;10.424;2024-01-07T08:06:34;7.35;;;2.40;;
17965;SDS011;9108;53.204;10.424;2024-01-07T08:09:01;5.55;;;2.00;;
17965;SDS011;9108;53.204;10.424;2024-01-07T08:11:28;5.03;;;2.08;;
17965;SDS011;9108;53.204;10.424;2024-01-07T08:13:55;6.07;;;2.03;;
17965;SDS011;9108;53.204;10.424;2024-01-07T08:16:23;5.20;;;1.98;;
17965;SDS011;9108;53.204;10.424;2024-01-07T08:18:50;6.00;;;1.95;;
17965;SDS011;9108;53.204;10.424;2024-01-07T08:21:17;6.03;;;1.80;;
17965;SDS011;9108;53.204;10.424;2024-01-07T08:23:47;5.95;;;1.90;;
17965;SDS011;9108;53.204;10.424;2024-01-07T08:26:17;5.75;;;2.15;;
17965;SDS011;9108;53.204;10.424;2024-01-07T08:28:44;5.28;;;2.00;;
17965;SDS011;9108;53.204;10.424;2024-01-07T08:31:12;4.82;;;2.08;;
17965;SDS011;9108;53.204;10.424;2024-01-07T08:33:39;5.53;;;1.83;;
17965;SDS011;9108;53.204;10.424;2024-01-07T08:36:06;5.38;;;2.22;;
17965;SDS011;9108;53.204;10.424;2024-01-07T08:38:33;7.30;;;1.95;;
17965;SDS011;9108;53.204;10.424;2024-01-07T08:41:02;6.70;;;2.15;;
17965;SDS011;9108;53.204;10.424;2024-01-07T08:43:29;4.75;;;2.03;;
17965;SDS011;9108;53.204;10.424;2024-01-07T08:45:57;6.28;;;2.10;;
17965;SDS011;9108;53.204;10.424;2024-01-07T08:48:24;5.00;;;1.73;;
17965;SDS011;9108;53.204;10.424;2024-01-07T08:50:51;8.75;;;1.95;;
17965;SDS011;9108;53.204;10.424;2024-01-07T08:53:18;5.80;;;1.70;;
17965;SDS011;9108;53.204;10.424;2024-01-07T08:55:47;6.57;;;2.10;;
17965;SDS011;9108;53.204;10.424;2024-01-07T08:58:16;5.25;;;1.90;;
17965;SDS011;9108;53.204;10.424;2024-01-07T09:00:43;4.97;;;1.92;;
17965;SDS011;9108;53.204;10.424;2024-01-07T09:03:10;4.93;;;1.70;;
17965;SDS011;9108;53.204;10.424;2024-01-07T09:05:37;7.10;;;1.90;;
17965;SDS011;9108;53.204;10.424;2024-01-07T09:08:05;5.45;;;1.77;;
17965;SDS011;9108;53.204;10.424;2024-01-07T09:10:32;7.85;;;2.00;;
17965;SDS011;9108;53.204;10.424;2024-01-07T09:12:59;5.63;;;2.05;;
17965;SDS011;9108;53.204;10.424;2024-01-07T09:15:28;4.40;;;1.85;;
17965;SDS011;9108;53.204;10.424;2024-01-07T09:17:55;5.60;;;1.90;;
17965;SDS011;9108;53.204;10.424;2024-01-07T09:20:22;6.07;;;2.10;;
17965;SDS011;9108;53.204;10.424;2024-01-07T09:22:49;7.75;;;2.13;;
17965;SDS011;9108;53.204;10.424;2024-01-07T09:25:16;5.97;;;2.00;;
17965;SDS011;9108;53.204;10.424;2024-01-07T09:27:43;6.22;;;1.95;;
17965;SDS011;9108;53.204;10.424;2024-01-07T09:30:11;6.70;;;2.08;;
17965;SDS011;9108;53.204;10.424;2024-01-07T09:32:41;4.35;;;1.80;;
17965;SDS011;9108;53.204;10.424;2024-01-07T09:35:08;6.43;;;1.98;;
17965;SDS011;9108;53.204;10.424;2024-01-07T09:37:35;7.07;;;1.83;;
17965;SDS011;9108;53.204;10.424;2024-01-07T09:40:02;6.70;;;1.87;;
17965;SDS011;9108;53.204;10.424;2024-01-07T09:42:31;5.05;;;1.83;;
17965;SDS011;9108;53.204;10.424;2024-01-07T09:44:58;7.82;;;2.08;;
17965;SDS011;9108;53.204;10.424;2024-01-07T09:47:27;5.63;;;1.90;;
17965;SDS011;9108;53.204;10.424;2024-01-07T09:49:56;4.45;;;1.90;;
17965;SDS011;9108;53.204;10.424;2024-01-07T09:52:30;4.60;;;1.70;;
17965;SDS011;9108;53.204;10.424;2024-01-07T09:55:00;5.85;;;1.88;;
17965;SDS011;9108;53.204;10.424;2024-01-07T09:57:29;5.88;;;1.90;;
17965;SDS011;9108;53.204;10.424;2024-01-07T10:00:02;6.32;;;1.90;;
17965;SDS011;9108;53.204;10.424;2024-01-07T10:02:43;5.97;;;2.00;;
17965;SDS011;9108;53.204;10.424;2024-01-07T12:19:16;3.53;;;1.50;;
17965;SDS011;9108;53.204;10.424;2024-01-07T12:22:06;3.67;;;1.40;;
17965;SDS011;9108;53.204;10.424;2024-01-07T12:27:59;3.17;;;1.48;;
17965;SDS011;9108;53.204;10.424;2024-01-07T12:30:47;4.20;;;1.30;;
17965;SDS011;9108;53.204;10.424;2024-01-07T19:16:15;12.65;;;5.63;;
17965;SDS011;9108;53.204;10.424;2024-01-07T19:18:42;12.90;;;5.68;;
17965;SDS011;9108;53.204;10.424;2024-01-07T19:21:13;12.95;;;5.95;;
17965;SDS011;9108;53.204;10.424;2024-01-07T19:23:42;11.90;;;5.60;;
17965;SDS011;9108;53.204;10.424;2024-01-07T19:26:09;11.48;;;5.60;;
17965;SDS011;9108;53.204;10.424;2024-01-07T19:28:37;11.90;;;5.40;;
17965;SDS011;9108;53.204;10.424;2024-01-07T19:31:10;12.70;;;5.93;;
17965;SDS011;9108;53.204;10.424;2024-01-07T19:33:57;12.00;;;5.72;;
17965;SDS011;9108;53.204;10.424;2024-01-07T19:36:24;11.00;;;5.70;;
17965;SDS011;9108;53.204;10.424;2024-01-07T19:38:53;16.33;;;6.18;;
17965;SDS011;9108;53.204;10.424;2024-01-07T19:41:25;11.07;;;5.20;;
17965;SDS011;9108;53.204;10.424;2024-01-07T19:43:58;13.65;;;5.90;;
17965;SDS011;9108;53.204;10.424;2024-01-07T19:46:27;12.75;;;5.93;;
17965;SDS011;9108;53.204;10.424;2024-01-07T19:48:58;12.57;;;5.75;;
17965;SDS011;9108;53.204;10.424;2024-01-07T19:51:26;14.88;;;6.30;;
17965;SDS011;9108;53.204;10.424;2024-01-07T19:53:54;13.20;;;5.72;;
17965;SDS011;9108;53.204;10.424;2024-01-07T19:56:26;11.00;;;5.57;;
17965;SDS011;9108;53.204;10.424;2024-01-07T19:58:55;10.18;;;5.38;;
17965;SDS011;9108;53.204;10.424;2024-01-07T20:01:22;11.45;;;6.07;;
17965;SDS011;9108;53.204;10.424;2024-01-07T20:03:49;12.38;;;5.60;;
17965;SDS011;9108;53.204;10.424;2024-01-07T20:06:18;12.02;;;5.60;;
17965;SDS011;9108;53.204;10.424;2024-01-07T20:08:47;13.67;;;5.80;;
17965;SDS011;9108;53.204;10.424;2024-01-07T20:11:17;11.90;;;5.47;;
17965;SDS011;9108;53.204;10.424;2024-01-07T20:13:46;12.60;;;5.72;;
17965;SDS011;9108;53.204;10.424;2024-01-07T20:16:13;10.75;;;5.28;;
17965;SDS011;9108;53.204;10.424;2024-01-07T20:18:40;11.15;;;5.45;;
17965;SDS011;9108;53.204;10.424;2024-01-07T20:23:55;11.73;;;5.30;;
17965;SDS011;9108;53.204;10.424;2024-01-07T20:26:24;11.25;;;5.43;;
17965;SDS011;9108;53.204;10.424;2024-01-07T20:28:51;10.77;;;5.32;;
17965;SDS011;9108;53.204;10.424;2024-01-07T20:31:19;12.60;;;5.82;;
17965;SDS011;9108;53.204;10.424;2024-01-07T20:33:47;11.25;;;5.82;;
17965;SDS011;9108;53.204;10.424;2024-01-07T20:39:19;13.85;;;6.10;;
17965;SDS011;9108;53.204;10.424;2024-01-07T20:41:49;13.70;;;6.20;;
17965;SDS011;9108;53.204;10.424;2024-01-07T20:44:16;12.93;;;6.00;;
17965;SDS011;9108;53.204;10.424;2024-01-07T20:46:44;13.27;;;6.40;;
17965;SDS011;9108;53.204;10.424;2024-01-07T20:52:17;13.50;;;6.15;;
17965;SDS011;9108;53.204;10.424;2024-01-07T20:54:48;14.52;;;6.43;;
17965;SDS011;9108;53.204;10.424;2024-01-07T20:59:57;13.90;;;6.30;;
17965;SDS011;9108;53.204;10.424;2024-01-07T21:02:24;14.88;;;6.53;;
17965;SDS011;9108;53.204;10.424;2024-01-07T21:04:53;14.73;;;6.97;;
17965;SDS011;9108;53.204;10.424;2024-01-07T21:07:41;14.23;;;6.57;;
17965;SDS011;9108;53.204;10.424;2024-01-07T21:10:10;16.75;;;7.20;;
17965;SDS011;9108;53.204;10.424;2024-01-07T21:12:37;14.77;;;6.90;;
17965;SDS011;9108;53.204;10.424;2024-01-07T21:15:04;16.70;;;6.93;;
17965;SDS011;9108;53.204;10.424;2024-01-07T21:17:32;17.38;;;7.70;;
17965;SDS011;9108;53.204;10.424;2024-01-07T21:20:13;16.70;;;7.53;;
17965;SDS011;9108;53.204;10.424;2024-01-07T21:22:41;13.70;;;7.00;;
17965;SDS011;9108;53.204;10.424;2024-01-07T21:25:12;17.95;;;7.47;;
17965;SDS011;9108;53.204;10.424;2024-01-07T21:27:49;16.90;;;7.80;;
17965;SDS011;9108;53.204;10.424;2024-01-07T21:30:24;16.40;;;8.05;;
17965;SDS011;9108;53.204;10.424;2024-01-07T21:32:57;15.80;;;7.35;;
17965;SDS011;9108;53.204;10.424;2024-01-07T21:35:33;16.83;;;7.35;;
17965;SDS011;9108;53.204;10.424;2024-01-07T21:38:05;18.08;;;8.15;;
17965;SDS011;9108;53.204;10.424;2024-01-07T21:40:45;15.77;;;7.43;;
17965;SDS011;9108;53.204;10.424;2024-01-07T21:43:37;17.33;;;7.93;;
17965;SDS011;9108;53.204;10.424;2024-01-07T21:46:19;16.63;;;7.40;;
17965;SDS011;9108;53.204;10.424;2024-01-07T21:48:58;16.88;;;8.00;;
17965;SDS011;9108;53.204;10.424;2024-01-07T21:51:49;15.38;;;7.55;;
17965;SDS011;9108;53.204;10.424;2024-01-07T21:54:21;20.97;;;8.77;;
17965;SDS011;9108;53.204;10.424;2024-01-07T21:56:52;20.60;;;8.88;;
17965;SDS011;9108;53.204;10.424;2024-01-07T21:59:20;17.48;;;8.50;;
17965;SDS011;9108;53.204;10.424;2024-01-07T22:01:47;18.77;;;8.48;;
17965;SDS011;9108;53.204;10.424;2024-01-07T22:04:15;19.55;;;8.80;;
17965;SDS011;9108;53.204;10.424;2024-01-07T22:06:46;19.25;;;8.80;;
17965;SDS011;9108;53.204;10.424;2024-01-07T22:09:13;20.73;;;9.02;;
17965;SDS011;9108;53.204;10.424;2024-01-07T22:11:42;21.75;;;9.13;;
17965;SDS011;9108;53.204;10.424;2024-01-07T22:14:15;20.67;;;9.02;;
17965;SDS011;9108;53.204;10.424;2024-01-07T22:16:43;21.10;;;8.60;;
17965;SDS011;9108;53.204;10.424;2024-01-07T22:19:12;19.08;;;8.80;;
17965;SDS011;9108;53.204;10.424;2024-01-07T22:21:45;20.13;;;8.80;;
17965;SDS011;9108;53.204;10.424;2024-01-07T22:24:17;17.33;;;8.70;;
17965;SDS011;9108;53.204;10.424;2024-01-07T22:26:49;20.63;;;8.45;;
17965;SDS011;9108;53.204;10.424;2024-01-07T22:29:18;19.02;;;8.82;;
17965;SDS011;9108;53.204;10.424;2024-01-07T22:31:47;18.60;;;8.75;;
17965;SDS011;9108;53.204;10.424;2024-01-07T22:34:14;18.07;;;8.27;;
17965;SDS011;9108;53.204;10.424;2024-01-07T22:36:47;18.88;;;8.82;;
17965;SDS011;9108;53.204;10.424;2024-01-07T22:39:33;18.40;;;8.65;;
17965;SDS011;9108;53.204;10.424;2024-01-07T22:42:15;17.58;;;8.20;;
17965;SDS011;9108;53.204;10.424;2024-01-07T22:44:57;18.10;;;8.38;;
17965;SDS011;9108;53.204;10.424;2024-01-07T22:47:43;19.30;;;8.48;;
17965;SDS011;9108;53.204;10.424;2024-01-07T22:50:17;18.02;;;8.48;;
17965;SDS011;9108;53.204;10.424;2024-01-07T22:52:58;20.90;;;9.10;;
17965;SDS011;9108;53.204;10.424;2024-01-07T22:55:37;19.38;;;8.77;;
17965;SDS011;9108;53.204;10.424;2024-01-07T22:58:17;20.40;;;8.80;;
17965;SDS011;9108;53.204;10.424;2024-01-07T23:00:49;21.20;;;8.65;;
17965;SDS011;9108;53.204;10.424;2024-01-07T23:03:16;18.83;;;8.95;;
17965;SDS011;9108;53.204;10.424;2024-01-07T23:05:44;18.83;;;8.57;;
17965;SDS011;9108;53.204;10.424;2024-01-07T23:08:11;17.42;;;8.57;;
17965;SDS011;9108;53.204;10.424;2024-01-07T23:10:39;17.80;;;8.32;;
17965;SDS011;9108;53.204;10.424;2024-01-07T23:13:07;18.33;;;8.48;;
17965;SDS011;9108;53.204;10.424;2024-01-07T23:15:35;20.13;;;8.82;;
17965;SDS011;9108;53.204;10.424;2024-01-07T23:18:04;19.42;;;8.75;;
17965;SDS011;9108;53.204;10.424;2024-01-07T23:20:32;17.88;;;8.57;;
17965;SDS011;9108;53.204;10.424;2024-01-07T23:22:59;20.50;;;8.88;;
17965;SDS011;9108;53.204;10.424;2024-01-07T23:25:27;19.13;;;8.30;;
17965;SDS011;9108;53.204;10.424;2024-01-07T23:27:54;17.77;;;8.02;;
17965;SDS011;9108;53.204;10.424;2024-01-07T23:30:21;17.88;;;8.10;;
17965;SDS011;9108;53.204;10.424;2024-01-07T23:32:48;18.13;;;8.20;;
17965;SDS011;9108;53.204;10.424;2024-01-07T23:35:17;17.98;;;8.52;;
17965;SDS011;9108;53.204;10.424;2024-01-07T23:37:44;18.73;;;8.30;;
17965;SDS011;9108;53.204;10.424;2024-01-07T23:40:12;18.13;;;8.00;;
17965;SDS011;9108;53.204;10.424;2024-01-07T23:42:39;19.65;;;8.02;;
17965;SDS011;9108;53.204;10.424;2024-01-07T23:45:07;17.02;;;7.80;;
17965;SDS011;9108;53.204;10.424;2024-01-07T23:47:34;18.15;;;7.63;;
17965;SDS011;9108;53.204;10.424;2024-01-07T23:50:02;17.80;;;7.55;;
17965;SDS011;9108;53.204;10.424;2024-01-07T23:52:30;16.00;;;7.22;;
17965;SDS011;9108;53.204;10.424;2024-01-07T23:55:05;15.95;;;7.15;;
17965;SDS011;9108;53.204;10.424;2024-01-07T23:57:39;16.38;;;6.95;;
